createdAt,value
2018-01-13T00:01:32.687Z,33.93
2018-01-13T00:31:38.422Z,25.80
2018-01-13T00:37:21.965Z,36.20
2018-01-13T00:42:40.114Z,23.40
2018-01-13T02:31:34.379Z,25.07
2018-01-13T02:53:36.832Z,32.20
2018-01-13T03:04:30.084Z,31.37
2018-01-13T03:33:53.875Z,49.00
2018-01-13T03:38:59.359Z,29.23
2018-01-13T04:00:49.859Z,33.13
2018-01-13T04:28:22.599Z,43.23
2018-01-13T04:34:10.361Z,66.03
2018-01-13T04:45:00.678Z,40.37
2018-01-13T05:07:03.840Z,37.20
2018-01-13T05:12:28.151Z,43.83
2018-01-13T05:23:20.207Z,40.57
2018-01-13T05:38:54.812Z,35.90
2018-01-13T05:44:18.246Z,42.63
2018-01-13T05:49:34.080Z,43.30
2018-01-13T06:21:44.962Z,48.83
2018-01-13T06:27:05.740Z,31.00
2018-01-13T06:32:29.622Z,43.70
2018-01-13T06:43:05.346Z,33.10
2018-01-13T06:54:20.968Z,45.70
2018-01-13T06:59:34.671Z,38.67
2018-01-13T07:04:51.197Z,35.43
2018-01-13T07:10:07.886Z,30.23
2018-01-13T07:15:15.564Z,35.93
2018-01-13T07:20:23.893Z,30.37
2018-01-13T07:25:57.516Z,32.67
2018-01-13T07:31:18.804Z,37.40
2018-01-13T07:48:10.243Z,36.30
2018-01-13T07:58:34.707Z,27.73
2018-01-13T08:04:08.426Z,34.37
2018-01-13T08:09:26.533Z,34.20
2018-01-13T08:20:07.757Z,43.17
2018-01-13T08:30:34.893Z,35.80
2018-01-13T08:41:38.576Z,59.23
2018-01-13T08:47:06.417Z,43.77
2018-01-13T08:52:19.014Z,39.57
2018-01-13T08:57:30.017Z,33.20
2018-01-13T09:02:37.075Z,39.40
2018-01-13T09:13:03.011Z,43.47
2018-01-13T09:18:09.005Z,38.73
2018-01-13T09:23:16.136Z,41.20
2018-01-13T09:28:25.992Z,38.87
2018-01-13T09:33:43.587Z,33.43
2018-01-13T09:38:59.399Z,36.87
2018-01-13T09:44:15.884Z,48.63
2018-01-13T09:49:27.603Z,43.00
2018-01-13T09:54:38.677Z,45.80
2018-01-13T09:59:45.752Z,41.90
2018-01-13T10:04:51.682Z,56.47
2018-01-13T10:10:02.562Z,38.43
2018-01-13T10:20:40.806Z,39.30
2018-01-13T10:37:11.325Z,29.30
2018-01-13T10:48:04.169Z,42.93
2018-01-13T11:20:34.320Z,44.70
2018-01-13T11:25:45.602Z,33.57
2018-01-13T11:30:59.762Z,34.63
2018-01-13T11:36:10.764Z,35.17
2018-01-13T11:41:18.519Z,35.17
2018-01-13T11:46:34.356Z,34.30
2018-01-13T11:56:59.111Z,37.30
2018-01-13T12:02:14.333Z,29.87
2018-01-13T12:07:24.210Z,27.60
2018-01-13T12:17:52.919Z,31.60
2018-01-13T12:23:09.972Z,24.57
2018-01-13T12:28:18.365Z,22.33
2018-01-13T12:33:31.260Z,20.13
2018-01-13T12:43:56.084Z,20.07
2018-01-13T12:49:02.891Z,27.80
2018-01-13T12:54:10.696Z,26.10
2018-01-13T12:59:26.168Z,22.73
2018-01-13T13:04:42.350Z,15.43
2018-01-13T13:15:44.648Z,18.90
2018-01-13T13:26:06.038Z,20.20
2018-01-13T13:31:16.189Z,15.47
2018-01-13T13:36:26.482Z,28.00
2018-01-13T13:41:55.865Z,18.00
2018-01-13T13:47:09.983Z,24.63
2018-01-13T13:57:55.091Z,25.90
2018-01-13T14:03:10.539Z,28.63
2018-01-13T14:08:36.080Z,16.77
2018-01-13T14:19:21.915Z,20.47
2018-01-13T14:29:55.258Z,21.50
2018-01-13T14:35:04.807Z,24.40
2018-01-13T14:40:11.930Z,16.90
2018-01-13T14:45:17.938Z,17.23
2018-01-13T14:50:23.150Z,20.83
2018-01-13T14:55:38.549Z,21.23
2018-01-13T15:00:43.078Z,17.50
2018-01-13T15:06:00.186Z,21.27
2018-01-13T15:16:41.910Z,20.27
2018-01-13T15:21:46.345Z,13.03
2018-01-13T15:37:58.012Z,14.23
2018-01-13T15:43:25.896Z,15.03
2018-01-13T16:10:45.522Z,19.63
2018-01-13T16:21:20.331Z,19.27
2018-01-13T16:31:58.823Z,23.30
2018-01-13T16:37:03.606Z,17.03
2018-01-13T16:42:06.977Z,15.20
2018-01-13T16:47:13.611Z,22.43
2018-01-13T16:52:18.920Z,22.33
2018-01-13T16:57:23.360Z,25.53
2018-01-13T17:02:33.140Z,21.20
2018-01-13T17:07:39.744Z,22.33
2018-01-13T17:12:44.282Z,28.70
2018-01-13T17:17:51.982Z,23.43
2018-01-13T17:22:56.304Z,24.43
2018-01-13T17:28:02.630Z,24.27
2018-01-13T17:33:07.770Z,29.37
2018-01-13T17:38:14.943Z,23.27
2018-01-13T17:43:23.637Z,24.63
2018-01-13T17:48:26.306Z,20.23
2018-01-13T17:53:32.352Z,29.27
2018-01-13T17:58:35.178Z,21.90
2018-01-13T18:03:38.223Z,24.03
2018-01-13T18:08:41.188Z,34.07
2018-01-13T18:13:44.220Z,31.27
2018-01-13T18:18:49.527Z,28.53
2018-01-13T18:23:52.422Z,30.47
2018-01-13T18:28:55.792Z,32.33
2018-01-13T18:34:04.330Z,31.50
2018-01-13T18:39:07.532Z,32.97
2018-01-13T18:44:12.396Z,37.43
2018-01-13T18:49:15.793Z,38.30
2018-01-13T18:54:19.646Z,30.73
2018-01-13T18:59:25.528Z,47.63
2018-01-13T19:04:34.579Z,31.80
2018-01-13T19:09:39.343Z,37.00
2018-01-13T19:14:42.868Z,38.77
2018-01-13T19:19:45.839Z,32.10
2018-01-13T19:24:48.771Z,32.17
2018-01-13T19:29:53.915Z,32.70
2018-01-13T19:35:01.184Z,39.53
2018-01-13T19:40:05.250Z,32.30
2018-01-13T19:45:10.023Z,33.63
2018-01-13T19:50:14.861Z,34.17
2018-01-13T19:55:21.184Z,35.77
2018-01-13T20:00:25.597Z,38.67
2018-01-13T20:05:31.546Z,35.73
2018-01-13T20:10:36.033Z,38.40
2018-01-13T20:15:40.251Z,34.20
2018-01-13T20:20:45.964Z,27.03
2018-01-13T20:25:49.076Z,35.20
2018-01-13T20:30:52.019Z,27.10
2018-01-13T20:35:55.285Z,33.47
2018-01-13T20:40:57.986Z,26.80
2018-01-13T20:46:01.842Z,35.27
2018-01-13T20:51:04.597Z,38.97
2018-01-13T20:56:08.534Z,29.30
2018-01-13T21:01:13.235Z,52.70
2018-01-13T21:06:17.202Z,36.90
2018-01-13T21:11:23.337Z,37.50
2018-01-13T21:16:26.369Z,41.20
2018-01-13T21:21:32.635Z,31.80
2018-01-13T21:26:38.005Z,29.30
2018-01-13T21:31:42.854Z,35.47
2018-01-13T21:36:46.890Z,29.97
2018-01-13T21:41:50.100Z,36.33
2018-01-13T21:46:55.113Z,30.97
2018-01-13T21:51:59.076Z,35.87
2018-01-13T21:57:03.564Z,40.00
2018-01-13T22:02:10.553Z,32.37
2018-01-13T22:07:15.216Z,38.97
2018-01-13T22:12:20.018Z,28.27
2018-01-13T22:17:22.902Z,32.03
2018-01-13T22:22:26.747Z,34.63
2018-01-13T22:27:31.042Z,32.50
2018-01-13T22:32:40.287Z,28.70
2018-01-13T22:37:48.582Z,41.50
2018-01-13T22:43:01.380Z,30.77
2018-01-13T22:48:04.947Z,42.63
2018-01-13T22:53:10.521Z,33.67
2018-01-13T22:58:14.760Z,37.97
2018-01-13T23:03:19.026Z,27.13
2018-01-13T23:08:25.105Z,30.80
2018-01-13T23:13:29.656Z,29.43
2018-01-13T23:18:35.789Z,32.40
2018-01-13T23:23:44.697Z,35.80
2018-01-13T23:28:50.976Z,34.83
2018-01-13T23:33:58.066Z,37.63
2018-01-13T23:39:00.949Z,34.10
2018-01-13T23:44:05.167Z,24.87
2018-01-13T23:49:08.734Z,27.17
2018-01-13T23:54:13.546Z,29.40
2018-01-13T23:59:16.975Z,19.50
